sensor_id;sensor_type;location;lat;lon;timestamp;temperature;humidity
23568;DHT22;11962;50.838;4.430;2022-11-20T00:00:54;6.70;99.90
23568;DHT22;11962;50.838;4.430;2022-11-20T00:03:20;6.70;99.90
23568;DHT22;11962;50.838;4.430;2022-11-20T00:05:46;6.60;99.90
23568;DHT22;11962;50.838;4.430;2022-11-20T00:08:11;6.60;99.90
23568;DHT22;11962;50.838;4.430;2022-11-20T00:10:41;6.70;99.90
23568;DHT22;11962;50.838;4.430;2022-11-20T00:13:08;6.60;99.90
23568;DHT22;11962;50.838;4.430;2022-11-20T00:15:34;6.60;99.90
23568;DHT22;11962;50.838;4.430;2022-11-20T00:18:00;6.60;99.90
23568;DHT22;11962;50.838;4.430;2022-11-20T00:20:25;6.70;99.90
23568;DHT22;11962;50.838;4.430;2022-11-20T00:22:51;6.70;99.90
23568;DHT22;11962;50.838;4.430;2022-11-20T00:25:18;6.60;99.90
23568;DHT22;11962;50.838;4.430;2022-11-20T00:27:43;6.70;99.90
23568;DHT22;11962;50.838;4.430;2022-11-20T00:30:09;6.70;99.90
23568;DHT22;11962;50.838;4.430;2022-11-20T00:32:35;6.60;99.90
23568;DHT22;11962;50.838;4.430;2022-11-20T00:35:00;6.60;99.90
23568;DHT22;11962;50.838;4.430;2022-11-20T00:37:26;6.60;99.90
23568;DHT22;11962;50.838;4.430;2022-11-20T00:39:52;6.70;99.90
23568;DHT22;11962;50.838;4.430;2022-11-20T00:42:17;6.70;99.90
23568;DHT22;11962;50.838;4.430;2022-11-20T00:44:43;6.60;99.90
23568;DHT22;11962;50.838;4.430;2022-11-20T00:47:09;6.60;99.90
23568;DHT22;11962;50.838;4.430;2022-11-20T00:49:34;6.60;99.90
23568;DHT22;11962;50.838;4.430;2022-11-20T00:52:00;6.60;99.90
23568;DHT22;11962;50.838;4.430;2022-11-20T00:54:25;6.60;99.90
23568;DHT22;11962;50.838;4.430;2022-11-20T00:56:53;6.50;99.90
23568;DHT22;11962;50.838;4.430;2022-11-20T00:59:19;6.50;99.90
23568;DHT22;11962;50.838;4.430;2022-11-20T01:01:44;6.60;99.90
23568;DHT22;11962;50.838;4.430;2022-11-20T01:04:10;6.50;99.90
23568;DHT22;11962;50.838;4.430;2022-11-20T01:06:38;6.50;99.90
23568;DHT22;11962;50.838;4.430;2022-11-20T01:09:10;6.60;99.90
23568;DHT22;11962;50.838;4.430;2022-11-20T01:11:39;6.40;99.90
23568;DHT22;11962;50.838;4.430;2022-11-20T01:14:06;6.50;99.90
23568;DHT22;11962;50.838;4.430;2022-11-20T01:16:37;6.50;99.90
23568;DHT22;11962;50.838;4.430;2022-11-20T01:19:06;6.50;99.90
23568;DHT22;11962;50.838;4.430;2022-11-20T01:21:34;6.50;99.90
23568;DHT22;11962;50.838;4.430;2022-11-20T01:24:00;6.50;99.90
23568;DHT22;11962;50.838;4.430;2022-11-20T01:26:32;6.50;99.90
23568;DHT22;11962;50.838;4.430;2022-11-20T01:28:58;6.50;99.90
23568;DHT22;11962;50.838;4.430;2022-11-20T01:31:28;6.60;99.90
23568;DHT22;11962;50.838;4.430;2022-11-20T01:33:57;6.60;99.90
23568;DHT22;11962;50.838;4.430;2022-11-20T01:36:24;6.60;99.90
23568;DHT22;11962;50.838;4.430;2022-11-20T01:38:55;6.60;99.90
23568;DHT22;11962;50.838;4.430;2022-11-20T01:41:22;6.60;99.90
23568;DHT22;11962;50.838;4.430;2022-11-20T01:44:09;6.60;99.90
23568;DHT22;11962;50.838;4.430;2022-11-20T01:46:36;6.60;99.90
23568;DHT22;11962;50.838;4.430;2022-11-20T01:49:11;6.60;99.90
23568;DHT22;11962;50.838;4.430;2022-11-20T01:51:59;6.70;99.90
23568;DHT22;11962;50.838;4.430;2022-11-20T01:54:43;6.70;99.90
23568;DHT22;11962;50.838;4.430;2022-11-20T01:57:12;6.70;99.90
23568;DHT22;11962;50.838;4.430;2022-11-20T01:59:43;6.70;99.90
23568;DHT22;11962;50.838;4.430;2022-11-20T02:02:10;6.70;99.90
23568;DHT22;11962;50.838;4.430;2022-11-20T02:04:35;6.70;99.90
23568;DHT22;11962;50.838;4.430;2022-11-20T02:07:02;6.80;99.90
23568;DHT22;11962;50.838;4.430;2022-11-20T02:09:29;6.80;99.90
23568;DHT22;11962;50.838;4.430;2022-11-20T02:11:55;6.80;99.90
23568;DHT22;11962;50.838;4.430;2022-11-20T02:14:22;6.90;99.90
23568;DHT22;11962;50.838;4.430;2022-11-20T02:16:49;6.80;99.90
23568;DHT22;11962;50.838;4.430;2022-11-20T02:24:39;6.80;99.90
23568;DHT22;11962;50.838;4.430;2022-11-20T02:27:09;6.80;99.90
23568;DHT22;11962;50.838;4.430;2022-11-20T02:32:37;6.80;99.90
23568;DHT22;11962;50.838;4.430;2022-11-20T02:37:48;6.90;99.90
23568;DHT22;11962;50.838;4.430;2022-11-20T02:40:15;6.90;99.90
23568;DHT22;11962;50.838;4.430;2022-11-20T02:42:40;6.90;99.90
23568;DHT22;11962;50.838;4.430;2022-11-20T02:45:06;6.90;99.90
23568;DHT22;11962;50.838;4.430;2022-11-20T02:47:32;6.90;99.90
23568;DHT22;11962;50.838;4.430;2022-11-20T02:49:58;6.90;99.90
23568;DHT22;11962;50.838;4.430;2022-11-20T02:52:25;6.90;99.90
23568;DHT22;11962;50.838;4.430;2022-11-20T02:54:50;6.90;99.90
23568;DHT22;11962;50.838;4.430;2022-11-20T02:57:16;7.00;99.90
23568;DHT22;11962;50.838;4.430;2022-11-20T02:59:42;7.10;99.90
23568;DHT22;11962;50.838;4.430;2022-11-20T03:02:07;6.90;99.90
23568;DHT22;11962;50.838;4.430;2022-11-20T03:04:33;6.90;99.90
23568;DHT22;11962;50.838;4.430;2022-11-20T03:06:58;7.00;99.90
23568;DHT22;11962;50.838;4.430;2022-11-20T03:09:24;6.90;99.90
23568;DHT22;11962;50.838;4.430;2022-11-20T03:11:50;6.90;99.90
23568;DHT22;11962;50.838;4.430;2022-11-20T03:14:15;6.90;99.90
23568;DHT22;11962;50.838;4.430;2022-11-20T03:16:41;7.00;99.90
23568;DHT22;11962;50.838;4.430;2022-11-20T03:19:06;6.90;99.90
23568;DHT22;11962;50.838;4.430;2022-11-20T03:21:35;6.90;99.90
23568;DHT22;11962;50.838;4.430;2022-11-20T03:24:01;6.80;99.90
23568;DHT22;11962;50.838;4.430;2022-11-20T03:26:27;6.80;99.90
23568;DHT22;11962;50.838;4.430;2022-11-20T03:29:03;6.90;99.90
23568;DHT22;11962;50.838;4.430;2022-11-20T03:31:33;6.90;99.90
23568;DHT22;11962;50.838;4.430;2022-11-20T03:34:00;6.90;99.90
23568;DHT22;11962;50.838;4.430;2022-11-20T03:36:27;6.90;99.90
23568;DHT22;11962;50.838;4.430;2022-11-20T03:38:54;6.90;99.90
23568;DHT22;11962;50.838;4.430;2022-11-20T03:41:24;6.90;99.90
23568;DHT22;11962;50.838;4.430;2022-11-20T03:43:56;6.80;99.90
23568;DHT22;11962;50.838;4.430;2022-11-20T03:46:23;6.80;99.90
23568;DHT22;11962;50.838;4.430;2022-11-20T03:48:49;7.00;99.90
23568;DHT22;11962;50.838;4.430;2022-11-20T03:51:17;6.90;99.90
23568;DHT22;11962;50.838;4.430;2022-11-20T03:53:45;6.90;99.90
23568;DHT22;11962;50.838;4.430;2022-11-20T03:56:13;6.90;99.90
23568;DHT22;11962;50.838;4.430;2022-11-20T03:58:41;6.90;99.90
23568;DHT22;11962;50.838;4.430;2022-11-20T04:01:13;6.90;99.90
23568;DHT22;11962;50.838;4.430;2022-11-20T04:03:40;6.90;99.90
23568;DHT22;11962;50.838;4.430;2022-11-20T04:06:12;6.90;99.90
23568;DHT22;11962;50.838;4.430;2022-11-20T04:08:38;6.90;99.90
23568;DHT22;11962;50.838;4.430;2022-11-20T04:11:26;7.00;99.90
23568;DHT22;11962;50.838;4.430;2022-11-20T04:13:55;7.00;99.90
23568;DHT22;11962;50.838;4.430;2022-11-20T04:16:23;6.90;99.90
23568;DHT22;11962;50.838;4.430;2022-11-20T04:18:56;6.90;99.90
23568;DHT22;11962;50.838;4.430;2022-11-20T04:21:23;6.90;99.90
23568;DHT22;11962;50.838;4.430;2022-11-20T04:23:50;6.90;99.90
23568;DHT22;11962;50.838;4.430;2022-11-20T04:26:16;7.00;99.90
23568;DHT22;11962;50.838;4.430;2022-11-20T04:28:42;7.00;99.90
23568;DHT22;11962;50.838;4.430;2022-11-20T04:31:13;7.10;99.90
23568;DHT22;11962;50.838;4.430;2022-11-20T04:33:39;7.10;99.90
23568;DHT22;11962;50.838;4.430;2022-11-20T04:36:19;7.20;99.90
23568;DHT22;11962;50.838;4.430;2022-11-20T04:38:46;7.20;99.90
23568;DHT22;11962;50.838;4.430;2022-11-20T04:41:17;7.30;99.90
23568;DHT22;11962;50.838;4.430;2022-11-20T04:43:46;7.30;99.90
23568;DHT22;11962;50.838;4.430;2022-11-20T04:46:13;7.30;99.90
23568;DHT22;11962;50.838;4.430;2022-11-20T04:48:38;7.30;99.90
23568;DHT22;11962;50.838;4.430;2022-11-20T04:51:04;7.30;99.90
23568;DHT22;11962;50.838;4.430;2022-11-20T04:53:30;7.30;99.90
23568;DHT22;11962;50.838;4.430;2022-11-20T04:56:03;7.30;99.90
23568;DHT22;11962;50.838;4.430;2022-11-20T04:58:29;7.30;99.90
23568;DHT22;11962;50.838;4.430;2022-11-20T05:01:12;7.40;99.90
23568;DHT22;11962;50.838;4.430;2022-11-20T05:03:39;7.40;99.90
23568;DHT22;11962;50.838;4.430;2022-11-20T05:06:08;7.50;99.90
23568;DHT22;11962;50.838;4.430;2022-11-20T05:08:35;7.50;99.90
23568;DHT22;11962;50.838;4.430;2022-11-20T05:11:12;7.40;99.90
23568;DHT22;11962;50.838;4.430;2022-11-20T05:13:38;7.50;99.90
23568;DHT22;11962;50.838;4.430;2022-11-20T05:16:09;7.60;99.90
23568;DHT22;11962;50.838;4.430;2022-11-20T05:18:37;7.60;99.90
23568;DHT22;11962;50.838;4.430;2022-11-20T05:21:04;7.60;99.90
23568;DHT22;11962;50.838;4.430;2022-11-20T05:23:31;7.70;99.90
23568;DHT22;11962;50.838;4.430;2022-11-20T05:25:57;7.70;99.90
23568;DHT22;11962;50.838;4.430;2022-11-20T05:28:24;7.70;99.90
23568;DHT22;11962;50.838;4.430;2022-11-20T05:30:50;7.60;99.90
23568;DHT22;11962;50.838;4.430;2022-11-20T05:33:17;7.70;99.90
23568;DHT22;11962;50.838;4.430;2022-11-20T05:35:42;7.70;99.90
23568;DHT22;11962;50.838;4.430;2022-11-20T05:38:08;7.70;99.90
23568;DHT22;11962;50.838;4.430;2022-11-20T05:40:34;7.80;99.90
23568;DHT22;11962;50.838;4.430;2022-11-20T05:43:00;7.70;99.90
23568;DHT22;11962;50.838;4.430;2022-11-20T05:45:26;7.80;99.90
23568;DHT22;11962;50.838;4.430;2022-11-20T05:47:52;7.80;99.90
23568;DHT22;11962;50.838;4.430;2022-11-20T05:50:17;7.80;99.90
23568;DHT22;11962;50.838;4.430;2022-11-20T05:52:44;7.90;99.90
23568;DHT22;11962;50.838;4.430;2022-11-20T05:55:10;8.00;99.90
23568;DHT22;11962;50.838;4.430;2022-11-20T05:57:36;7.90;99.90
23568;DHT22;11962;50.838;4.430;2022-11-20T06:00:02;7.90;99.90
23568;DHT22;11962;50.838;4.430;2022-11-20T06:02:28;7.90;99.90
23568;DHT22;11962;50.838;4.430;2022-11-20T06:04:54;7.90;99.90
23568;DHT22;11962;50.838;4.430;2022-11-20T06:07:19;8.00;99.90
23568;DHT22;11962;50.838;4.430;2022-11-20T06:09:45;7.90;99.90
23568;DHT22;11962;50.838;4.430;2022-11-20T06:12:10;7.90;99.90
23568;DHT22;11962;50.838;4.430;2022-11-20T06:14:36;7.80;99.90
23568;DHT22;11962;50.838;4.430;2022-11-20T06:17:02;7.80;99.90
23568;DHT22;11962;50.838;4.430;2022-11-20T06:19:27;7.80;99.90
23568;DHT22;11962;50.838;4.430;2022-11-20T06:21:53;7.80;99.90
23568;DHT22;11962;50.838;4.430;2022-11-20T06:24:18;7.90;99.90
23568;DHT22;11962;50.838;4.430;2022-11-20T06:26:44;7.80;99.90
23568;DHT22;11962;50.838;4.430;2022-11-20T06:29:11;7.70;99.90
23568;DHT22;11962;50.838;4.430;2022-11-20T06:31:37;7.70;99.90
23568;DHT22;11962;50.838;4.430;2022-11-20T06:34:06;7.70;99.90
23568;DHT22;11962;50.838;4.430;2022-11-20T06:36:35;7.80;99.90
23568;DHT22;11962;50.838;4.430;2022-11-20T06:39:01;7.80;99.90
23568;DHT22;11962;50.838;4.430;2022-11-20T06:41:26;7.80;99.90
23568;DHT22;11962;50.838;4.430;2022-11-20T06:43:53;7.90;99.90
23568;DHT22;11962;50.838;4.430;2022-11-20T06:46:19;7.90;99.90
23568;DHT22;11962;50.838;4.430;2022-11-20T06:48:47;7.90;99.90
23568;DHT22;11962;50.838;4.430;2022-11-20T06:51:13;7.90;99.90
23568;DHT22;11962;50.838;4.430;2022-11-20T06:53:39;8.00;99.90
23568;DHT22;11962;50.838;4.430;2022-11-20T06:56:05;8.10;99.90
23568;DHT22;11962;50.838;4.430;2022-11-20T06:58:32;8.00;99.90
23568;DHT22;11962;50.838;4.430;2022-11-20T07:01:06;8.10;99.90
23568;DHT22;11962;50.838;4.430;2022-11-20T07:03:32;8.00;99.90
23568;DHT22;11962;50.838;4.430;2022-11-20T07:05:59;8.00;99.90
23568;DHT22;11962;50.838;4.430;2022-11-20T07:08:25;8.00;99.90
23568;DHT22;11962;50.838;4.430;2022-11-20T07:10:51;8.10;99.90
23568;DHT22;11962;50.838;4.430;2022-11-20T07:13:17;8.20;99.90
23568;DHT22;11962;50.838;4.430;2022-11-20T07:15:42;8.10;99.90
23568;DHT22;11962;50.838;4.430;2022-11-20T07:18:08;8.10;99.90
23568;DHT22;11962;50.838;4.430;2022-11-20T07:20:34;8.30;99.90
23568;DHT22;11962;50.838;4.430;2022-11-20T07:22:59;8.20;99.90
23568;DHT22;11962;50.838;4.430;2022-11-20T07:25:26;8.20;99.90
23568;DHT22;11962;50.838;4.430;2022-11-20T07:27:53;8.10;99.90
23568;DHT22;11962;50.838;4.430;2022-11-20T07:30:21;8.20;99.90
23568;DHT22;11962;50.838;4.430;2022-11-20T07:32:50;8.10;99.90
23568;DHT22;11962;50.838;4.430;2022-11-20T07:35:19;8.20;99.90
23568;DHT22;11962;50.838;4.430;2022-11-20T07:37:45;8.30;99.90
23568;DHT22;11962;50.838;4.430;2022-11-20T07:40:12;8.30;99.90
23568;DHT22;11962;50.838;4.430;2022-11-20T07:42:38;8.40;99.90
23568;DHT22;11962;50.838;4.430;2022-11-20T07:45:04;8.30;99.90
23568;DHT22;11962;50.838;4.430;2022-11-20T07:47:35;8.30;99.90
23568;DHT22;11962;50.838;4.430;2022-11-20T07:50:01;8.30;99.90
23568;DHT22;11962;50.838;4.430;2022-11-20T07:52:27;8.30;99.90
23568;DHT22;11962;50.838;4.430;2022-11-20T07:54:53;8.20;99.90
23568;DHT22;11962;50.838;4.430;2022-11-20T07:57:19;8.30;99.90
23568;DHT22;11962;50.838;4.430;2022-11-20T07:59:45;8.30;99.90
23568;DHT22;11962;50.838;4.430;2022-11-20T08:02:11;8.20;99.90
23568;DHT22;11962;50.838;4.430;2022-11-20T08:04:37;8.40;99.90
23568;DHT22;11962;50.838;4.430;2022-11-20T08:07:02;8.30;99.90
23568;DHT22;11962;50.838;4.430;2022-11-20T08:09:28;8.50;99.90
23568;DHT22;11962;50.838;4.430;2022-11-20T08:11:54;8.30;99.90
23568;DHT22;11962;50.838;4.430;2022-11-20T08:14:38;8.40;99.90
23568;DHT22;11962;50.838;4.430;2022-11-20T08:17:03;8.50;99.90
23568;DHT22;11962;50.838;4.430;2022-11-20T08:19:30;8.60;99.90
23568;DHT22;11962;50.838;4.430;2022-11-20T08:21:55;8.70;99.90
23568;DHT22;11962;50.838;4.430;2022-11-20T08:24:21;8.80;99.90
23568;DHT22;11962;50.838;4.430;2022-11-20T08:26:47;8.80;99.90
23568;DHT22;11962;50.838;4.430;2022-11-20T08:29:12;9.10;99.90
23568;DHT22;11962;50.838;4.430;2022-11-20T08:31:38;9.00;99.90
23568;DHT22;11962;50.838;4.430;2022-11-20T08:34:04;9.00;99.90
23568;DHT22;11962;50.838;4.430;2022-11-20T08:36:33;9.10;99.90
23568;DHT22;11962;50.838;4.430;2022-11-20T08:38:59;9.20;99.90
23568;DHT22;11962;50.838;4.430;2022-11-20T08:41:25;9.30;99.90
23568;DHT22;11962;50.838;4.430;2022-11-20T08:43:56;9.20;99.90
23568;DHT22;11962;50.838;4.430;2022-11-20T08:46:27;9.30;99.90
23568;DHT22;11962;50.838;4.430;2022-11-20T08:48:53;9.30;99.90
23568;DHT22;11962;50.838;4.430;2022-11-20T08:51:19;9.30;99.90
23568;DHT22;11962;50.838;4.430;2022-11-20T08:53:45;9.50;99.90
23568;DHT22;11962;50.838;4.430;2022-11-20T08:56:13;9.50;99.90
23568;DHT22;11962;50.838;4.430;2022-11-20T08:58:38;9.60;99.90
23568;DHT22;11962;50.838;4.430;2022-11-20T09:01:04;9.70;99.90
23568;DHT22;11962;50.838;4.430;2022-11-20T09:03:30;9.60;99.90
23568;DHT22;11962;50.838;4.430;2022-11-20T09:06:04;9.70;99.90
23568;DHT22;11962;50.838;4.430;2022-11-20T09:08:30;9.80;99.90
23568;DHT22;11962;50.838;4.430;2022-11-20T09:10:57;9.90;99.90
23568;DHT22;11962;50.838;4.430;2022-11-20T09:13:24;9.80;99.90
23568;DHT22;11962;50.838;4.430;2022-11-20T09:15:58;9.90;99.90
23568;DHT22;11962;50.838;4.430;2022-11-20T09:18:24;9.90;99.90
23568;DHT22;11962;50.838;4.430;2022-11-20T09:20:50;10.00;99.90
23568;DHT22;11962;50.838;4.430;2022-11-20T09:23:17;10.20;99.90
23568;DHT22;11962;50.838;4.430;2022-11-20T09:25:43;10.30;99.90
23568;DHT22;11962;50.838;4.430;2022-11-20T09:28:09;10.30;99.90
23568;DHT22;11962;50.838;4.430;2022-11-20T09:30:35;10.40;99.90
23568;DHT22;11962;50.838;4.430;2022-11-20T09:33:00;10.40;99.90
23568;DHT22;11962;50.838;4.430;2022-11-20T09:35:26;10.30;99.90
23568;DHT22;11962;50.838;4.430;2022-11-20T09:37:52;10.40;99.90
23568;DHT22;11962;50.838;4.430;2022-11-20T09:40:28;10.40;99.90
23568;DHT22;11962;50.838;4.430;2022-11-20T09:43:18;10.40;99.90
23568;DHT22;11962;50.838;4.430;2022-11-20T09:51:23;10.70;99.90
23568;DHT22;11962;50.838;4.430;2022-11-20T09:56:20;10.90;99.90
23568;DHT22;11962;50.838;4.430;2022-11-20T09:58:50;10.90;99.90
23568;DHT22;11962;50.838;4.430;2022-11-20T10:01:21;10.80;99.90
23568;DHT22;11962;50.838;4.430;2022-11-20T10:04:10;11.00;99.90
23568;DHT22;11962;50.838;4.430;2022-11-20T10:06:56;11.10;99.90
23568;DHT22;11962;50.838;4.430;2022-11-20T10:09:32;11.10;99.90
23568;DHT22;11962;50.838;4.430;2022-11-20T10:15:12;11.30;99.90
23568;DHT22;11962;50.838;4.430;2022-11-20T10:18:05;11.30;99.90
23568;DHT22;11962;50.838;4.430;2022-11-20T10:21:01;11.40;99.90
23568;DHT22;11962;50.838;4.430;2022-11-20T10:26:04;11.40;99.90
23568;DHT22;11962;50.838;4.430;2022-11-20T10:31:31;11.40;99.90
23568;DHT22;11962;50.838;4.430;2022-11-20T10:34:03;11.60;99.90
23568;DHT22;11962;50.838;4.430;2022-11-20T10:36:36;11.80;99.90
23568;DHT22;11962;50.838;4.430;2022-11-20T10:39:31;12.00;99.90
23568;DHT22;11962;50.838;4.430;2022-11-20T10:41:59;12.20;99.90
23568;DHT22;11962;50.838;4.430;2022-11-20T10:44:29;12.60;99.90
23568;DHT22;11962;50.838;4.430;2022-11-20T10:47:17;13.00;99.90
23568;DHT22;11962;50.838;4.430;2022-11-20T10:49:50;13.40;99.90
23568;DHT22;11962;50.838;4.430;2022-11-20T10:57:53;13.80;99.90
23568;DHT22;11962;50.838;4.430;2022-11-20T11:00:21;13.70;99.90
23568;DHT22;11962;50.838;4.430;2022-11-20T11:02:51;13.60;99.90
23568;DHT22;11962;50.838;4.430;2022-11-20T11:08:03;13.40;99.90
23568;DHT22;11962;50.838;4.430;2022-11-20T11:10:55;13.20;99.90
23568;DHT22;11962;50.838;4.430;2022-11-20T11:13:27;13.10;99.90
23568;DHT22;11962;50.838;4.430;2022-11-20T11:15:54;13.20;99.90
23568;DHT22;11962;50.838;4.430;2022-11-20T11:18:28;13.30;99.90
23568;DHT22;11962;50.838;4.430;2022-11-20T11:20:56;13.20;99.90
23568;DHT22;11962;50.838;4.430;2022-11-20T11:23:39;13.00;99.90
23568;DHT22;11962;50.838;4.430;2022-11-20T11:29:04;12.90;99.90
23568;DHT22;11962;50.838;4.430;2022-11-20T11:31:32;12.70;99.90
23568;DHT22;11962;50.838;4.430;2022-11-20T11:34:23;12.60;99.90
23568;DHT22;11962;50.838;4.430;2022-11-20T11:37:17;12.60;99.90
23568;DHT22;11962;50.838;4.430;2022-11-20T11:39:43;12.70;99.90
23568;DHT22;11962;50.838;4.430;2022-11-20T11:42:13;12.80;99.90
23568;DHT22;11962;50.838;4.430;2022-11-20T11:44:45;12.90;99.90
23568;DHT22;11962;50.838;4.430;2022-11-20T11:47:31;12.80;99.90
23568;DHT22;11962;50.838;4.430;2022-11-20T11:50:20;12.60;99.90
23568;DHT22;11962;50.838;4.430;2022-11-20T11:55:53;12.60;99.90
23568;DHT22;11962;50.838;4.430;2022-11-20T11:58:24;12.50;99.90
23568;DHT22;11962;50.838;4.430;2022-11-20T12:00:58;12.30;99.90
23568;DHT22;11962;50.838;4.430;2022-11-20T12:03:35;12.30;99.90
23568;DHT22;11962;50.838;4.430;2022-11-20T12:06:06;12.30;99.90
23568;DHT22;11962;50.838;4.430;2022-11-20T12:08:59;12.20;99.90
23568;DHT22;11962;50.838;4.430;2022-11-20T12:14:32;11.90;99.90
23568;DHT22;11962;50.838;4.430;2022-11-20T12:17:00;11.80;99.90
23568;DHT22;11962;50.838;4.430;2022-11-20T12:19:29;11.60;99.90
23568;DHT22;11962;50.838;4.430;2022-11-20T12:28:01;11.40;99.90
23568;DHT22;11962;50.838;4.430;2022-11-20T12:30:28;11.30;99.90
23568;DHT22;11962;50.838;4.430;2022-11-20T12:36:06;11.20;99.90
23568;DHT22;11962;50.838;4.430;2022-11-20T12:38:39;11.10;99.90
23568;DHT22;11962;50.838;4.430;2022-11-20T12:50:37;10.90;99.90
23568;DHT22;11962;50.838;4.430;2022-11-20T12:53:27;11.00;99.90
23568;DHT22;11962;50.838;4.430;2022-11-20T13:06:50;11.20;99.90
23568;DHT22;11962;50.838;4.430;2022-11-20T13:09:18;11.20;99.90
23568;DHT22;11962;50.838;4.430;2022-11-20T13:11:50;11.30;99.90
23568;DHT22;11962;50.838;4.430;2022-11-20T13:17:20;11.20;99.90
23568;DHT22;11962;50.838;4.430;2022-11-20T13:19:54;11.20;99.90
23568;DHT22;11962;50.838;4.430;2022-11-20T13:22:28;11.20;99.90
23568;DHT22;11962;50.838;4.430;2022-11-20T13:24:54;11.20;99.90
23568;DHT22;11962;50.838;4.430;2022-11-20T13:27:23;11.20;99.90
23568;DHT22;11962;50.838;4.430;2022-11-20T13:30:13;11.10;99.90
23568;DHT22;11962;50.838;4.430;2022-11-20T13:35:37;11.10;99.90
23568;DHT22;11962;50.838;4.430;2022-11-20T13:38:11;11.00;99.90
23568;DHT22;11962;50.838;4.430;2022-11-20T13:40:49;11.00;99.90
23568;DHT22;11962;50.838;4.430;2022-11-20T13:43:22;10.80;99.90
23568;DHT22;11962;50.838;4.430;2022-11-20T13:48:23;10.80;99.90
23568;DHT22;11962;50.838;4.430;2022-11-20T13:55:59;10.70;99.90
23568;DHT22;11962;50.838;4.430;2022-11-20T14:01:37;10.80;99.90
23568;DHT22;11962;50.838;4.430;2022-11-20T14:04:08;10.90;99.90
23568;DHT22;11962;50.838;4.430;2022-11-20T14:06:45;11.00;99.90
23568;DHT22;11962;50.838;4.430;2022-11-20T14:09:24;11.00;99.90
23568;DHT22;11962;50.838;4.430;2022-11-20T14:11:50;11.00;99.90
23568;DHT22;11962;50.838;4.430;2022-11-20T14:14:21;11.10;99.90
23568;DHT22;11962;50.838;4.430;2022-11-20T14:16:48;11.00;99.90
23568;DHT22;11962;50.838;4.430;2022-11-20T14:21:49;11.00;99.90
23568;DHT22;11962;50.838;4.430;2022-11-20T14:24:22;10.90;99.90
23568;DHT22;11962;50.838;4.430;2022-11-20T14:26:48;10.80;99.90
23568;DHT22;11962;50.838;4.430;2022-11-20T14:29:18;10.70;99.90
23568;DHT22;11962;50.838;4.430;2022-11-20T14:31:45;10.70;99.90
23568;DHT22;11962;50.838;4.430;2022-11-20T14:34:23;10.70;99.90
23568;DHT22;11962;50.838;4.430;2022-11-20T14:36:53;10.80;99.90
23568;DHT22;11962;50.838;4.430;2022-11-20T14:39:21;10.70;99.90
23568;DHT22;11962;50.838;4.430;2022-11-20T14:41:51;10.70;99.90
23568;DHT22;11962;50.838;4.430;2022-11-20T14:44:17;10.70;99.90
23568;DHT22;11962;50.838;4.430;2022-11-20T14:46:43;10.70;99.90
23568;DHT22;11962;50.838;4.430;2022-11-20T14:49:10;10.70;99.90
23568;DHT22;11962;50.838;4.430;2022-11-20T14:51:40;10.70;99.90
23568;DHT22;11962;50.838;4.430;2022-11-20T14:54:14;10.80;99.90
23568;DHT22;11962;50.838;4.430;2022-11-20T14:56:40;10.70;99.90
23568;DHT22;11962;50.838;4.430;2022-11-20T14:59:06;10.70;99.90
23568;DHT22;11962;50.838;4.430;2022-11-20T15:01:33;10.70;99.90
23568;DHT22;11962;50.838;4.430;2022-11-20T15:04:08;10.60;99.90
23568;DHT22;11962;50.838;4.430;2022-11-20T15:06:34;10.50;99.90
23568;DHT22;11962;50.838;4.430;2022-11-20T15:09:04;10.60;99.90
23568;DHT22;11962;50.838;4.430;2022-11-20T15:11:34;10.50;99.90
23568;DHT22;11962;50.838;4.430;2022-11-20T15:14:06;10.50;99.90
23568;DHT22;11962;50.838;4.430;2022-11-20T15:16:32;10.50;99.90
23568;DHT22;11962;50.838;4.430;2022-11-20T15:18:58;10.60;99.90
23568;DHT22;11962;50.838;4.430;2022-11-20T15:21:28;10.60;99.90
23568;DHT22;11962;50.838;4.430;2022-11-20T15:23:54;10.70;99.90
23568;DHT22;11962;50.838;4.430;2022-11-20T15:26:27;10.60;99.90
23568;DHT22;11962;50.838;4.430;2022-11-20T15:28:54;10.70;99.90
23568;DHT22;11962;50.838;4.430;2022-11-20T15:31:22;10.70;99.90
23568;DHT22;11962;50.838;4.430;2022-11-20T15:33:52;10.80;99.90
23568;DHT22;11962;50.838;4.430;2022-11-20T15:36:18;10.70;99.90
23568;DHT22;11962;50.838;4.430;2022-11-20T15:38:44;10.80;99.90
23568;DHT22;11962;50.838;4.430;2022-11-20T15:41:09;10.80;99.90
23568;DHT22;11962;50.838;4.430;2022-11-20T15:43:36;10.70;99.90
23568;DHT22;11962;50.838;4.430;2022-11-20T15:46:14;10.70;99.90
23568;DHT22;11962;50.838;4.430;2022-11-20T15:48:44;10.70;99.90
23568;DHT22;11962;50.838;4.430;2022-11-20T15:53:37;10.70;99.90
23568;DHT22;11962;50.838;4.430;2022-11-20T15:56:03;10.70;99.90
23568;DHT22;11962;50.838;4.430;2022-11-20T15:58:29;10.70;99.90
23568;DHT22;11962;50.838;4.430;2022-11-20T16:00:55;10.70;99.90
23568;DHT22;11962;50.838;4.430;2022-11-20T16:03:21;10.70;99.90
23568;DHT22;11962;50.838;4.430;2022-11-20T16:05:47;10.80;99.90
23568;DHT22;11962;50.838;4.430;2022-11-20T16:08:13;10.80;99.90
23568;DHT22;11962;50.838;4.430;2022-11-20T16:10:39;10.70;99.90
23568;DHT22;11962;50.838;4.430;2022-11-20T16:13:12;10.60;99.90
23568;DHT22;11962;50.838;4.430;2022-11-20T16:15:59;10.70;99.90
23568;DHT22;11962;50.838;4.430;2022-11-20T16:18:25;10.70;99.90
23568;DHT22;11962;50.838;4.430;2022-11-20T16:20:52;10.80;99.90
23568;DHT22;11962;50.838;4.430;2022-11-20T16:23:18;10.70;99.90
23568;DHT22;11962;50.838;4.430;2022-11-20T16:25:46;10.80;99.90
23568;DHT22;11962;50.838;4.430;2022-11-20T16:28:12;10.70;99.90
23568;DHT22;11962;50.838;4.430;2022-11-20T16:30:38;10.70;99.90
23568;DHT22;11962;50.838;4.430;2022-11-20T16:33:08;10.70;99.90
23568;DHT22;11962;50.838;4.430;2022-11-20T16:35:34;10.60;99.90
23568;DHT22;11962;50.838;4.430;2022-11-20T16:38:00;10.70;99.90
23568;DHT22;11962;50.838;4.430;2022-11-20T16:40:25;10.70;99.90
23568;DHT22;11962;50.838;4.430;2022-11-20T16:42:51;10.50;99.90
23568;DHT22;11962;50.838;4.430;2022-11-20T16:45:18;10.60;99.90
23568;DHT22;11962;50.838;4.430;2022-11-20T16:47:43;10.50;99.90
23568;DHT22;11962;50.838;4.430;2022-11-20T16:50:09;10.50;99.90
23568;DHT22;11962;50.838;4.430;2022-11-20T16:52:35;10.60;99.90
23568;DHT22;11962;50.838;4.430;2022-11-20T16:55:01;10.60;99.90
23568;DHT22;11962;50.838;4.430;2022-11-20T16:57:27;10.50;99.90
23568;DHT22;11962;50.838;4.430;2022-11-20T16:59:54;10.60;99.90
23568;DHT22;11962;50.838;4.430;2022-11-20T17:02:20;10.60;99.90
23568;DHT22;11962;50.838;4.430;2022-11-20T17:04:45;10.50;99.90
23568;DHT22;11962;50.838;4.430;2022-11-20T17:07:11;10.60;99.90
23568;DHT22;11962;50.838;4.430;2022-11-20T17:09:37;10.50;99.90
23568;DHT22;11962;50.838;4.430;2022-11-20T17:12:03;10.60;99.90
23568;DHT22;11962;50.838;4.430;2022-11-20T17:14:29;10.60;99.90
23568;DHT22;11962;50.838;4.430;2022-11-20T17:16:55;10.60;99.90
23568;DHT22;11962;50.838;4.430;2022-11-20T17:19:20;10.70;99.90
23568;DHT22;11962;50.838;4.430;2022-11-20T17:21:46;10.80;99.90
23568;DHT22;11962;50.838;4.430;2022-11-20T17:24:12;10.80;99.90
23568;DHT22;11962;50.838;4.430;2022-11-20T17:26:41;10.70;99.90